KGIC

Idaho County Airport

Grangeville, Idaho, USA
METAR KGIC 191855Z AUTO 00000KT 10SM CLR 15/00 A3000 RMK AO1
Observed Flight Rules
Sep-19 @ 18:55 UTC (23 minutes ago) Visual Flight Rules
Visibility Clouds
10 miles
  • Clear skies
Temperatures Readings
Current 15°C / 59°F
Dewpoint 0°C / 32°F
Humidity 36%
Altimeter 30" Hg
Pressure 1016 hPa
Elevation 1009
METAR KGIC 191855Z AUTO 00000KT 10SM CLR 15/00 A3000 RMK AO1
Observed Flight Rules
Sep-19 @ 18:55 UTC
(23 minutes ago)
VFR
Clouds
  • Clear skies
Temperature Dewpoint
15°C / 59°F 0°C / 32°F
Humidity Altimeter Pressure
36% 30" Hg 1016 hPa